createdAt,value
2017-11-17T00:02:17.435Z,64.80
2017-11-17T00:04:43.645Z,63.57
2017-11-17T00:07:09.849Z,71.80
2017-11-17T00:09:36.141Z,75.17
2017-11-17T00:12:02.461Z,62.27
2017-11-17T00:14:28.704Z,63.00
2017-11-17T00:16:54.911Z,62.80
2017-11-17T00:19:21.197Z,64.63
2017-11-17T00:21:47.457Z,73.10
2017-11-17T00:24:13.715Z,71.10
2017-11-17T00:26:39.914Z,65.00
2017-11-17T00:29:06.203Z,72.53
2017-11-17T00:31:32.477Z,70.47
2017-11-17T00:33:58.697Z,65.67
2017-11-17T00:36:24.894Z,65.73
2017-11-17T00:38:51.878Z,64.47
2017-11-17T00:41:18.083Z,71.93
2017-11-17T00:43:44.278Z,74.37
2017-11-17T00:46:10.506Z,73.30
2017-11-17T00:48:36.767Z,63.73
2017-11-17T00:51:03.013Z,77.40
2017-11-17T00:53:29.270Z,72.20
2017-11-17T00:55:57.547Z,77.50
2017-11-17T00:58:23.899Z,77.90
2017-11-17T01:00:50.894Z,77.93
2017-11-17T01:03:17.163Z,79.33
2017-11-17T01:05:43.412Z,80.30
2017-11-17T01:08:09.614Z,82.67
2017-11-17T01:10:35.830Z,86.63
2017-11-17T01:13:02.107Z,79.33
2017-11-17T01:15:28.407Z,81.50
2017-11-17T01:17:55.386Z,75.80
2017-11-17T01:20:21.683Z,81.73
2017-11-17T01:22:47.916Z,81.57
2017-11-17T01:25:14.164Z,80.60
2017-11-17T01:27:40.353Z,83.00
2017-11-17T01:30:06.626Z,77.50
2017-11-17T01:32:32.975Z,76.93
2017-11-17T01:34:59.227Z,86.77
2017-11-17T01:37:25.505Z,78.90
2017-11-17T01:39:51.721Z,69.70
2017-11-17T01:42:18.065Z,84.97
2017-11-17T01:44:44.297Z,71.10
2017-11-17T01:47:11.242Z,75.70
2017-11-17T01:49:37.587Z,73.60
2017-11-17T01:52:03.900Z,69.80
2017-11-17T01:54:30.164Z,76.40
2017-11-17T01:56:56.454Z,81.57
2017-11-17T01:59:22.757Z,78.37
2017-11-17T02:01:49.010Z,77.63
2017-11-17T02:04:16.106Z,75.23
2017-11-17T02:06:42.359Z,87.73
2017-11-17T02:09:09.289Z,76.70
2017-11-17T02:11:36.316Z,73.00
2017-11-17T02:14:02.526Z,82.13
2017-11-17T02:16:28.942Z,75.33
2017-11-17T02:18:55.226Z,72.30
2017-11-17T02:21:21.465Z,82.10
2017-11-17T02:23:47.675Z,78.80
2017-11-17T02:26:14.176Z,89.33
2017-11-17T02:28:40.442Z,72.37
2017-11-17T02:31:07.807Z,79.87
2017-11-17T02:33:34.039Z,88.47
2017-11-17T02:36:00.306Z,76.53
2017-11-17T02:38:26.571Z,87.00
2017-11-17T02:40:52.796Z,71.40
2017-11-17T02:43:19.074Z,85.70
2017-11-17T02:45:45.397Z,79.33
2017-11-17T02:48:11.686Z,86.10
2017-11-17T02:50:38.007Z,81.83
2017-11-17T02:53:04.243Z,77.93
2017-11-17T02:55:30.482Z,95.07
2017-11-17T02:57:56.783Z,88.63
2017-11-17T03:00:23.073Z,90.30
2017-11-17T03:02:49.354Z,97.70
2017-11-17T03:05:16.351Z,79.43
2017-11-17T03:07:42.716Z,76.97
2017-11-17T03:10:08.958Z,83.57
2017-11-17T03:12:35.207Z,82.43
2017-11-17T03:15:01.528Z,90.63
2017-11-17T03:17:27.770Z,81.23
2017-11-17T03:19:54.815Z,86.80
2017-11-17T03:22:21.107Z,79.90
2017-11-17T03:24:48.139Z,86.80
2017-11-17T03:27:14.357Z,90.20
2017-11-17T03:29:41.349Z,91.53
2017-11-17T03:32:07.630Z,85.50
2017-11-17T03:34:33.882Z,84.27
2017-11-17T03:37:00.101Z,89.20
2017-11-17T03:39:26.390Z,93.30
2017-11-17T03:41:52.746Z,94.33
2017-11-17T03:44:19.110Z,106.30
2017-11-17T03:46:45.366Z,102.90
2017-11-17T03:49:11.587Z,105.37
2017-11-17T03:51:37.878Z,88.23
2017-11-17T03:54:04.192Z,97.70
2017-11-17T03:56:30.434Z,91.03
2017-11-17T03:58:56.662Z,98.67
2017-11-17T04:01:23.091Z,100.43
2017-11-17T04:03:49.335Z,105.07
2017-11-17T04:06:15.662Z,104.43
2017-11-17T04:08:41.925Z,96.97
2017-11-17T04:11:08.861Z,96.27
2017-11-17T04:13:35.162Z,94.93
2017-11-17T04:16:02.142Z,106.70
2017-11-17T04:18:28.441Z,92.70
2017-11-17T04:20:54.678Z,100.27
2017-11-17T04:23:21.003Z,101.73
2017-11-17T04:25:47.327Z,92.67
2017-11-17T04:28:13.570Z,100.60
2017-11-17T04:30:39.883Z,107.03
2017-11-17T04:33:06.114Z,104.57
2017-11-17T04:35:32.341Z,95.47
2017-11-17T04:37:58.625Z,89.97
2017-11-17T04:40:25.701Z,105.67
2017-11-17T04:42:51.971Z,102.07
2017-11-17T04:45:18.253Z,85.90
2017-11-17T04:47:44.569Z,88.37
2017-11-17T04:50:10.960Z,108.50
2017-11-17T04:52:37.302Z,99.93
2017-11-17T04:55:03.694Z,88.10
2017-11-17T04:57:30.000Z,97.67
2017-11-17T04:59:56.216Z,103.13
2017-11-17T05:02:22.457Z,96.77
2017-11-17T05:04:48.774Z,100.90
2017-11-17T05:07:15.030Z,98.07
2017-11-17T05:09:41.338Z,90.37
2017-11-17T05:12:07.599Z,100.50
2017-11-17T05:14:33.829Z,99.60
2017-11-17T05:17:00.116Z,103.03
2017-11-17T05:19:26.306Z,86.63
2017-11-17T05:21:53.265Z,107.43
2017-11-17T05:24:19.499Z,87.77
2017-11-17T05:26:45.659Z,80.07
2017-11-17T05:29:11.937Z,78.03
2017-11-17T05:31:38.108Z,99.67
2017-11-17T05:34:04.356Z,89.57
2017-11-17T05:36:30.592Z,97.67
2017-11-17T05:38:56.840Z,93.83
2017-11-17T05:41:23.067Z,83.40
2017-11-17T05:43:49.276Z,90.30
2017-11-17T05:46:15.473Z,97.60
2017-11-17T05:48:42.423Z,105.20
2017-11-17T05:51:08.602Z,92.30
2017-11-17T05:53:34.818Z,86.53
2017-11-17T05:56:01.031Z,105.70
2017-11-17T05:58:27.285Z,114.53
2017-11-17T06:00:53.482Z,103.30
2017-11-17T06:03:19.689Z,106.43
2017-11-17T06:05:45.955Z,103.43
2017-11-17T06:08:12.170Z,100.77
2017-11-17T06:10:38.368Z,110.63
2017-11-17T06:13:04.873Z,113.33
2017-11-17T06:15:31.172Z,128.93
2017-11-17T06:17:57.438Z,114.60
2017-11-17T06:20:23.647Z,116.77
2017-11-17T06:22:49.880Z,113.10
2017-11-17T06:25:16.138Z,116.23
2017-11-17T06:27:43.417Z,115.53
2017-11-17T06:30:09.613Z,116.27
2017-11-17T06:32:35.834Z,130.00
2017-11-17T06:35:02.734Z,124.80
2017-11-17T06:37:29.168Z,129.07
2017-11-17T06:39:55.383Z,135.43
2017-11-17T06:42:21.583Z,154.50
2017-11-17T06:44:47.787Z,127.87
2017-11-17T06:47:14.102Z,125.10
2017-11-17T06:49:40.312Z,148.57
2017-11-17T06:52:06.537Z,115.77
2017-11-17T06:54:32.798Z,132.27
2017-11-17T06:56:59.071Z,97.40
2017-11-17T06:59:25.317Z,112.40
2017-11-17T07:01:51.596Z,125.27
2017-11-17T07:04:17.862Z,123.53
2017-11-17T07:06:44.099Z,118.30
2017-11-17T07:09:10.377Z,106.40
2017-11-17T07:11:37.338Z,116.93
2017-11-17T07:14:04.331Z,131.80
2017-11-17T07:16:30.818Z,134.33
2017-11-17T07:18:57.109Z,165.17
2017-11-17T07:21:24.069Z,152.43
2017-11-17T07:23:50.362Z,145.43
2017-11-17T07:26:16.606Z,159.23
2017-11-17T07:28:42.821Z,144.57
2017-11-17T07:31:09.007Z,140.90
2017-11-17T07:33:35.331Z,157.50
2017-11-17T07:36:01.562Z,152.50
2017-11-17T07:38:27.824Z,179.77
2017-11-17T07:40:54.788Z,162.73
2017-11-17T07:43:21.034Z,180.90
2017-11-17T07:45:47.288Z,152.23
2017-11-17T07:48:14.324Z,155.43
2017-11-17T07:50:42.069Z,181.90
2017-11-17T07:53:08.244Z,173.37
2017-11-17T07:55:34.477Z,185.93
2017-11-17T07:58:00.755Z,171.10
2017-11-17T08:00:26.942Z,161.57
2017-11-17T08:02:53.508Z,160.33
2017-11-17T08:05:19.715Z,156.77
2017-11-17T08:07:45.963Z,161.73
2017-11-17T08:10:12.912Z,157.87
2017-11-17T08:12:39.626Z,169.57
2017-11-17T08:15:06.658Z,154.70
2017-11-17T08:17:45.110Z,155.10
2017-11-17T08:20:11.470Z,160.17
2017-11-17T08:22:38.429Z,173.57
2017-11-17T08:25:04.636Z,174.03
2017-11-17T08:27:31.199Z,134.37
2017-11-17T08:29:57.378Z,155.50
2017-11-17T08:32:23.683Z,165.87
2017-11-17T08:34:49.916Z,140.00
2017-11-17T08:37:16.283Z,166.00
2017-11-17T08:39:42.489Z,160.30
2017-11-17T08:42:08.693Z,157.13
2017-11-17T08:44:34.896Z,157.80
2017-11-17T08:47:01.139Z,154.53
2017-11-17T08:49:28.089Z,135.60
2017-11-17T08:51:54.628Z,145.13
2017-11-17T08:54:20.839Z,166.83
2017-11-17T08:56:47.100Z,159.00
2017-11-17T08:59:13.874Z,143.20
2017-11-17T09:01:40.149Z,142.77
2017-11-17T09:04:06.361Z,154.17
2017-11-17T09:06:32.608Z,158.10
2017-11-17T09:08:58.927Z,147.83
2017-11-17T09:11:25.166Z,134.63
2017-11-17T09:13:51.413Z,156.20
2017-11-17T09:16:17.680Z,143.00
2017-11-17T09:18:43.885Z,143.33
2017-11-17T09:21:10.179Z,155.93
2017-11-17T09:23:36.438Z,148.37
2017-11-17T09:26:02.717Z,137.20
2017-11-17T09:28:29.808Z,155.57
2017-11-17T09:30:56.031Z,144.83
2017-11-17T09:33:22.223Z,147.33
2017-11-17T09:35:48.605Z,154.53
2017-11-17T09:38:15.331Z,162.37
2017-11-17T09:40:42.084Z,148.03
2017-11-17T09:43:08.298Z,167.43
2017-11-17T09:45:34.525Z,158.80
2017-11-17T09:48:00.724Z,156.80
2017-11-17T09:50:26.932Z,173.30
2017-11-17T09:52:53.230Z,123.67
2017-11-17T09:55:19.408Z,147.87
2017-11-17T09:57:45.676Z,175.97
2017-11-17T10:00:11.945Z,156.20
2017-11-17T10:02:38.174Z,154.77
2017-11-17T10:05:04.409Z,171.80
2017-11-17T10:07:30.723Z,133.63
2017-11-17T10:09:56.956Z,159.20
2017-11-17T10:12:23.157Z,145.70
2017-11-17T10:14:49.381Z,148.23
2017-11-17T10:17:15.825Z,161.27
2017-11-17T10:19:43.044Z,163.03
2017-11-17T10:22:09.293Z,180.03
2017-11-17T10:24:35.603Z,148.83
2017-11-17T10:27:01.782Z,150.33
2017-11-17T10:29:28.010Z,175.57
2017-11-17T10:31:54.297Z,166.47
2017-11-17T10:34:20.519Z,183.43
2017-11-17T10:36:46.751Z,175.17
2017-11-17T10:39:13.016Z,171.43
2017-11-17T10:41:39.388Z,155.07
2017-11-17T10:44:05.694Z,137.13
2017-11-17T10:46:33.004Z,148.00
2017-11-17T10:48:59.222Z,168.37
2017-11-17T10:51:25.430Z,153.47
2017-11-17T10:53:51.641Z,146.73
2017-11-17T10:56:18.724Z,145.50
2017-11-17T10:58:44.966Z,149.77
2017-11-17T11:01:11.191Z,151.53
2017-11-17T11:03:37.477Z,159.47
2017-11-17T11:06:04.539Z,167.20
2017-11-17T11:08:30.786Z,163.93
2017-11-17T11:11:03.136Z,170.37
2017-11-17T11:13:29.390Z,154.60
2017-11-17T11:15:55.679Z,146.10
2017-11-17T11:18:22.016Z,133.57
2017-11-17T11:20:48.251Z,155.80
2017-11-17T11:23:15.276Z,161.20
2017-11-17T11:25:41.512Z,140.83
2017-11-17T11:28:08.466Z,147.57
2017-11-17T11:30:34.781Z,131.03
2017-11-17T11:33:01.064Z,123.50
2017-11-17T11:35:27.323Z,131.87
2017-11-17T11:37:53.546Z,153.47
2017-11-17T11:40:19.878Z,130.43
2017-11-17T11:42:46.125Z,125.00
2017-11-17T11:45:12.399Z,127.80
2017-11-17T11:47:38.649Z,129.17
2017-11-17T11:50:04.928Z,123.93
2017-11-17T11:52:31.147Z,124.40
2017-11-17T11:54:57.358Z,132.37
2017-11-17T11:57:23.583Z,143.50
2017-11-17T11:59:50.588Z,121.07
2017-11-17T12:02:16.828Z,135.80
2017-11-17T12:04:43.820Z,144.17
2017-11-17T12:07:10.139Z,156.03
2017-11-17T12:09:36.458Z,152.30
2017-11-17T12:12:02.689Z,150.77
2017-11-17T12:14:28.934Z,150.37
2017-11-17T12:16:55.242Z,142.90
2017-11-17T12:19:21.473Z,135.73
2017-11-17T12:21:47.666Z,138.30
2017-11-17T12:24:14.718Z,131.53
2017-11-17T12:26:41.014Z,144.50
2017-11-17T12:29:07.344Z,148.90
2017-11-17T12:31:33.674Z,131.37
2017-11-17T12:34:00.011Z,140.80
2017-11-17T12:36:26.235Z,139.70
2017-11-17T12:38:52.533Z,160.73
2017-11-17T12:41:18.784Z,146.80
2017-11-17T12:43:45.046Z,141.70
2017-11-17T12:46:11.311Z,142.87
2017-11-17T12:48:37.557Z,138.20
2017-11-17T12:51:03.804Z,137.40
2017-11-17T12:53:30.030Z,125.33
2017-11-17T12:55:56.449Z,147.63
2017-11-17T12:58:22.836Z,140.33
2017-11-17T13:00:49.321Z,116.73
2017-11-17T13:03:15.526Z,123.10
2017-11-17T13:05:41.767Z,115.17
2017-11-17T13:08:08.104Z,130.37
2017-11-17T13:10:34.349Z,128.83
2017-11-17T13:13:00.667Z,116.60
2017-11-17T13:15:26.968Z,122.17
2017-11-17T13:17:53.444Z,129.93
2017-11-17T13:20:19.690Z,121.10
2017-11-17T13:22:46.169Z,130.03
2017-11-17T13:25:13.118Z,135.43
2017-11-17T13:27:39.458Z,130.67
2017-11-17T13:30:05.732Z,124.83
2017-11-17T13:32:32.061Z,129.73
2017-11-17T13:34:58.308Z,122.57
2017-11-17T13:37:24.551Z,133.63
2017-11-17T13:39:50.773Z,131.67
2017-11-17T13:42:17.097Z,131.53
2017-11-17T13:44:43.335Z,128.03
2017-11-17T13:47:09.528Z,133.53
2017-11-17T13:49:35.817Z,132.80
2017-11-17T13:52:02.105Z,126.83
2017-11-17T13:54:30.518Z,118.47
2017-11-17T13:56:57.529Z,134.60
2017-11-17T13:59:23.839Z,108.83
2017-11-17T14:01:50.077Z,116.37
2017-11-17T14:04:17.050Z,125.90
2017-11-17T14:06:43.266Z,110.50
2017-11-17T14:09:09.587Z,127.07
2017-11-17T14:11:35.770Z,121.83
2017-11-17T14:14:03.216Z,118.40
2017-11-17T14:16:29.426Z,127.23
2017-11-17T14:18:55.698Z,122.33
2017-11-17T14:21:21.979Z,116.93
2017-11-17T14:23:48.318Z,124.93
2017-11-17T14:26:14.682Z,135.30
2017-11-17T14:28:40.967Z,125.23
2017-11-17T14:31:07.271Z,119.33
2017-11-17T14:33:33.505Z,122.03
2017-11-17T14:35:59.794Z,108.03
2017-11-17T14:38:26.664Z,128.07
2017-11-17T14:40:52.955Z,129.07
2017-11-17T14:43:19.163Z,142.23
2017-11-17T14:45:45.406Z,114.63
2017-11-17T14:48:12.351Z,111.57
2017-11-17T14:50:38.613Z,132.20
2017-11-17T14:53:04.995Z,129.93
2017-11-17T14:55:31.306Z,121.57
2017-11-17T14:57:57.548Z,119.43
2017-11-17T15:00:23.833Z,132.90
2017-11-17T15:02:50.188Z,116.63
2017-11-17T15:05:16.506Z,131.97
2017-11-17T15:07:42.746Z,120.57
2017-11-17T15:10:09.025Z,132.97
2017-11-17T15:12:35.420Z,138.73
2017-11-17T15:15:01.682Z,139.80
2017-11-17T15:17:27.935Z,128.90
2017-11-17T15:19:54.218Z,118.97
2017-11-17T15:22:20.665Z,127.67
2017-11-17T15:24:46.943Z,127.27
2017-11-17T15:27:13.301Z,134.77
2017-11-17T15:29:39.568Z,122.13
2017-11-17T15:32:05.928Z,455.67
2017-11-17T15:34:32.173Z,128.57
2017-11-17T15:36:58.516Z,200.00
2017-11-17T15:39:24.805Z,116.50
2017-11-17T15:41:51.079Z,129.60
2017-11-17T15:44:17.350Z,121.13
2017-11-17T15:46:43.844Z,148.03
2017-11-17T15:49:10.133Z,141.83
2017-11-17T15:51:36.474Z,122.67
2017-11-17T15:54:02.952Z,126.93
2017-11-17T15:56:29.318Z,133.67
2017-11-17T15:58:55.560Z,148.70
2017-11-17T16:01:21.784Z,124.43
2017-11-17T16:03:59.844Z,144.97
2017-11-17T16:06:26.825Z,227.30
2017-11-17T16:08:53.233Z,254.23
2017-11-17T16:11:32.577Z,118.47
2017-11-17T16:13:58.952Z,125.83
2017-11-17T16:16:25.325Z,120.30
2017-11-17T16:18:51.660Z,158.23
2017-11-17T16:21:18.037Z,134.50
2017-11-17T16:23:44.470Z,145.30
2017-11-17T16:26:10.874Z,137.57
2017-11-17T16:28:37.287Z,136.70
2017-11-17T16:31:04.417Z,141.47
2017-11-17T16:33:30.801Z,145.57
2017-11-17T16:35:57.187Z,131.30
2017-11-17T16:38:23.816Z,145.30
2017-11-17T16:40:50.329Z,136.77
2017-11-17T16:43:16.586Z,145.23
2017-11-17T16:45:43.602Z,148.67
2017-11-17T16:48:10.037Z,131.23
2017-11-17T16:50:36.399Z,156.80
2017-11-17T16:53:02.724Z,127.70
2017-11-17T16:55:29.037Z,130.07
2017-11-17T16:57:55.394Z,149.20
2017-11-17T17:00:21.782Z,151.60
2017-11-17T17:02:48.061Z,153.73
2017-11-17T17:05:14.318Z,169.57
2017-11-17T17:07:40.678Z,153.87
2017-11-17T17:10:07.725Z,163.67
2017-11-17T17:12:34.281Z,149.67
2017-11-17T17:15:00.733Z,154.37
2017-11-17T17:17:27.798Z,161.17
2017-11-17T17:19:54.225Z,179.40
2017-11-17T17:22:20.506Z,167.30
2017-11-17T17:24:47.579Z,167.83
2017-11-17T17:27:13.939Z,188.53
2017-11-17T17:29:41.120Z,195.60
2017-11-17T17:32:07.464Z,196.70
2017-11-17T17:34:33.891Z,217.33
2017-11-17T17:37:00.127Z,226.17
2017-11-17T17:39:26.511Z,218.97
2017-11-17T17:41:53.600Z,248.70
2017-11-17T17:44:19.994Z,232.43
2017-11-17T17:46:47.018Z,211.37
2017-11-17T17:49:13.394Z,178.90
2017-11-17T17:51:39.734Z,182.20
2017-11-17T17:54:06.119Z,174.23
2017-11-17T17:56:32.442Z,199.57
2017-11-17T17:58:58.746Z,189.13
2017-11-17T18:01:25.121Z,168.13
2017-11-17T18:03:51.373Z,174.07
2017-11-17T18:06:17.757Z,159.07
2017-11-17T18:08:44.757Z,158.53
2017-11-17T18:11:11.114Z,153.53
2017-11-17T18:13:38.198Z,152.03
2017-11-17T18:16:15.746Z,155.63
2017-11-17T18:18:43.131Z,141.10
2017-11-17T18:21:09.634Z,240.97
2017-11-17T18:23:36.960Z,177.27
2017-11-17T18:26:03.361Z,142.37
2017-11-17T18:28:29.640Z,118.87
2017-11-17T18:30:56.699Z,188.17
2017-11-17T18:33:23.931Z,122.23
2017-11-17T18:35:50.894Z,108.40
2017-11-17T18:38:18.282Z,123.00
2017-11-17T18:40:44.697Z,113.53
2017-11-17T18:43:13.294Z,120.03
2017-11-17T18:45:39.681Z,121.93
2017-11-17T18:48:06.058Z,117.40
2017-11-17T18:50:32.485Z,127.07
2017-11-17T18:52:59.949Z,123.83
2017-11-17T18:55:26.221Z,117.00
2017-11-17T18:57:52.644Z,115.43
2017-11-17T19:00:18.975Z,119.43
2017-11-17T19:02:45.380Z,122.20
2017-11-17T19:05:12.544Z,117.80
2017-11-17T19:07:38.835Z,144.27
2017-11-17T19:10:05.384Z,157.93
2017-11-17T19:12:31.939Z,133.20
2017-11-17T19:15:00.908Z,139.17
2017-11-17T19:17:28.420Z,133.43
2017-11-17T19:19:54.893Z,121.57
2017-11-17T19:22:21.157Z,131.23
2017-11-17T19:24:48.296Z,112.53
2017-11-17T19:27:14.629Z,113.40
2017-11-17T19:29:41.878Z,119.83
2017-11-17T19:32:08.176Z,127.97
2017-11-17T19:34:34.693Z,108.83
2017-11-17T19:37:01.081Z,131.23
2017-11-17T19:39:27.496Z,133.60
2017-11-17T19:41:53.787Z,125.27
2017-11-17T19:44:20.118Z,126.53
2017-11-17T19:46:46.609Z,133.87
2017-11-17T19:49:13.008Z,135.50
2017-11-17T19:51:39.449Z,147.30
2017-11-17T19:54:05.762Z,162.50
2017-11-17T19:56:32.260Z,169.33
2017-11-17T19:58:58.601Z,168.80
2017-11-17T20:01:25.152Z,157.07
2017-11-17T20:03:51.462Z,131.77
2017-11-17T20:06:17.897Z,139.23
2017-11-17T20:08:44.348Z,137.23
2017-11-17T20:11:11.420Z,143.03
2017-11-17T20:13:41.890Z,124.80
2017-11-17T20:16:08.332Z,134.93
2017-11-17T20:18:34.856Z,137.13
2017-11-17T20:21:01.997Z,137.07
2017-11-17T20:23:28.361Z,144.17
2017-11-17T20:25:54.998Z,142.37
2017-11-17T20:28:22.356Z,153.33
2017-11-17T20:30:48.883Z,155.73
2017-11-17T20:33:15.415Z,162.23
2017-11-17T20:35:41.898Z,148.90
2017-11-17T20:38:08.212Z,143.50
2017-11-17T20:40:34.732Z,144.47
2017-11-17T20:43:02.175Z,155.67
2017-11-17T20:45:28.680Z,155.83
2017-11-17T20:47:55.251Z,135.70
2017-11-17T20:50:21.854Z,136.27
2017-11-17T20:52:49.447Z,158.50
2017-11-17T20:55:15.888Z,135.80
2017-11-17T20:57:42.299Z,138.57
2017-11-17T21:00:08.688Z,136.60
2017-11-17T21:02:35.510Z,151.47
2017-11-17T21:05:01.806Z,163.53
2017-11-17T21:07:29.177Z,131.67
2017-11-17T21:09:55.647Z,117.33
2017-11-17T21:12:21.921Z,140.03
2017-11-17T21:14:48.473Z,165.13
2017-11-17T21:17:15.009Z,185.77
2017-11-17T21:19:42.185Z,157.77
2017-11-17T21:22:08.526Z,177.00
2017-11-17T21:24:34.967Z,185.40
2017-11-17T21:27:01.493Z,186.73
2017-11-17T21:29:28.632Z,190.47
2017-11-17T21:31:55.701Z,194.33
2017-11-17T21:34:22.029Z,158.37
2017-11-17T21:36:48.348Z,175.27
2017-11-17T21:39:15.866Z,166.30
2017-11-17T21:41:42.244Z,189.23
2017-11-17T21:44:08.642Z,152.87
2017-11-17T21:46:35.133Z,172.27
2017-11-17T21:49:01.476Z,175.67
2017-11-17T21:51:28.151Z,162.00
2017-11-17T21:53:54.543Z,165.43
2017-11-17T21:56:20.826Z,176.87
2017-11-17T21:58:51.105Z,181.23
2017-11-17T22:01:17.395Z,156.60
2017-11-17T22:03:43.766Z,175.37
2017-11-17T22:06:10.550Z,159.93
2017-11-17T22:08:36.854Z,156.70
2017-11-17T22:11:03.123Z,168.30
2017-11-17T22:13:29.880Z,159.63
2017-11-17T22:15:56.264Z,160.90
2017-11-17T22:18:22.624Z,155.30
2017-11-17T22:20:49.129Z,162.47
2017-11-17T22:23:15.602Z,148.73
2017-11-17T22:25:42.677Z,150.40
2017-11-17T22:28:09.772Z,156.33
2017-11-17T22:30:36.608Z,163.37
2017-11-17T22:33:02.845Z,156.60
2017-11-17T22:35:29.090Z,145.10
2017-11-17T22:37:55.581Z,151.30
2017-11-17T22:40:22.578Z,150.87
2017-11-17T22:42:48.825Z,131.23
2017-11-17T22:45:15.073Z,143.23
2017-11-17T22:47:43.204Z,131.43
2017-11-17T22:50:09.711Z,135.63
2017-11-17T22:52:36.208Z,167.53
2017-11-17T22:55:02.775Z,143.23
2017-11-17T22:57:29.121Z,157.10
2017-11-17T23:02:48.190Z,160.77
2017-11-17T23:05:14.468Z,166.43
2017-11-17T23:07:40.826Z,181.03
2017-11-17T23:10:07.088Z,196.23
2017-11-17T23:12:33.315Z,196.27
2017-11-17T23:14:59.612Z,181.20
2017-11-17T23:17:25.848Z,188.20
2017-11-17T23:19:53.150Z,223.03
2017-11-17T23:22:19.416Z,218.07
2017-11-17T23:24:46.861Z,225.83
2017-11-17T23:27:13.104Z,241.93
2017-11-17T23:29:39.529Z,219.17
2017-11-17T23:32:05.776Z,174.53
2017-11-17T23:34:32.311Z,189.10
2017-11-17T23:36:58.534Z,189.80
2017-11-17T23:39:24.764Z,202.87
2017-11-17T23:41:51.348Z,208.27
2017-11-17T23:44:18.322Z,230.17
2017-11-17T23:46:44.581Z,232.80
2017-11-17T23:49:10.870Z,244.57
2017-11-17T23:51:37.159Z,256.00
2017-11-17T23:54:04.142Z,259.10
2017-11-17T23:56:30.434Z,239.83
2017-11-17T23:58:56.738Z,260.63
